sensor_id;sensor_type;location;lat;lon;timestamp;temperature;humidity
10597;DHT22;5346;48.766;8.674;2023-05-14T00:00:51;8.60;1.00
10597;DHT22;5346;48.766;8.674;2023-05-14T00:03:20;8.60;1.00
10597;DHT22;5346;48.766;8.674;2023-05-14T00:05:55;8.50;1.00
10597;DHT22;5346;48.766;8.674;2023-05-14T00:08:31;8.50;1.00
10597;DHT22;5346;48.766;8.674;2023-05-14T00:11:05;8.40;1.00
10597;DHT22;5346;48.766;8.674;2023-05-14T00:13:35;8.40;35.00
10597;DHT22;5346;48.766;8.674;2023-05-14T00:16:10;8.30;54.70
10597;DHT22;5346;48.766;8.674;2023-05-14T00:18:37;8.20;14.30
10597;DHT22;5346;48.766;8.674;2023-05-14T00:21:12;8.20;99.50
10597;DHT22;5346;48.766;8.674;2023-05-14T00:23:39;8.10;99.90
10597;DHT22;5346;48.766;8.674;2023-05-14T00:26:12;8.00;99.90
10597;DHT22;5346;48.766;8.674;2023-05-14T00:28:47;7.90;99.90
10597;DHT22;5346;48.766;8.674;2023-05-14T00:31:21;7.80;99.90
10597;DHT22;5346;48.766;8.674;2023-05-14T00:33:49;7.70;99.90
10597;DHT22;5346;48.766;8.674;2023-05-14T00:36:22;7.70;99.90
10597;DHT22;5346;48.766;8.674;2023-05-14T00:38:57;7.60;99.90
10597;DHT22;5346;48.766;8.674;2023-05-14T00:41:32;7.50;99.90
10597;DHT22;5346;48.766;8.674;2023-05-14T00:43:59;7.40;1.00
10597;DHT22;5346;48.766;8.674;2023-05-14T00:46:33;7.30;1.00
10597;DHT22;5346;48.766;8.674;2023-05-14T00:49:02;7.20;1.00
10597;DHT22;5346;48.766;8.674;2023-05-14T00:51:37;7.10;1.00
10597;DHT22;5346;48.766;8.674;2023-05-14T00:54:15;7.00;1.00
10597;DHT22;5346;48.766;8.674;2023-05-14T00:56:50;7.00;1.00
10597;DHT22;5346;48.766;8.674;2023-05-14T00:59:17;7.00;1.00
10597;DHT22;5346;48.766;8.674;2023-05-14T01:01:59;7.10;1.00
10597;DHT22;5346;48.766;8.674;2023-05-14T01:04:39;7.00;1.00
10597;DHT22;5346;48.766;8.674;2023-05-14T01:10:16;7.00;1.00
10597;DHT22;5346;48.766;8.674;2023-05-14T01:15:55;6.80;12.80
10597;DHT22;5346;48.766;8.674;2023-05-14T01:18:31;6.80;29.80
10597;DHT22;5346;48.766;8.674;2023-05-14T01:21:38;6.80;99.90
10597;DHT22;5346;48.766;8.674;2023-05-14T01:24:07;6.80;99.90
10597;DHT22;5346;48.766;8.674;2023-05-14T01:26:40;6.80;99.90
10597;DHT22;5346;48.766;8.674;2023-05-14T01:29:22;6.80;99.90
10597;DHT22;5346;48.766;8.674;2023-05-14T01:32:04;6.80;99.90
10597;DHT22;5346;48.766;8.674;2023-05-14T01:34:35;6.80;99.90
10597;DHT22;5346;48.766;8.674;2023-05-14T01:37:11;6.80;99.90
10597;DHT22;5346;48.766;8.674;2023-05-14T01:39:40;6.90;99.90
10597;DHT22;5346;48.766;8.674;2023-05-14T01:42:15;7.00;99.90
10597;DHT22;5346;48.766;8.674;2023-05-14T01:44:49;7.10;99.90
10597;DHT22;5346;48.766;8.674;2023-05-14T01:47:22;7.20;99.90
10597;DHT22;5346;48.766;8.674;2023-05-14T01:49:56;7.30;99.90
10597;DHT22;5346;48.766;8.674;2023-05-14T01:52:24;7.40;99.90
10597;DHT22;5346;48.766;8.674;2023-05-14T01:55:05;7.40;99.90
10597;DHT22;5346;48.766;8.674;2023-05-14T01:57:40;7.40;99.90
10597;DHT22;5346;48.766;8.674;2023-05-14T02:00:14;7.30;99.90
10597;DHT22;5346;48.766;8.674;2023-05-14T02:02:41;7.30;99.90
10597;DHT22;5346;48.766;8.674;2023-05-14T02:05:16;7.20;99.90
10597;DHT22;5346;48.766;8.674;2023-05-14T02:07:57;7.20;99.90
10597;DHT22;5346;48.766;8.674;2023-05-14T02:10:31;7.30;99.90
10597;DHT22;5346;48.766;8.674;2023-05-14T02:13:04;7.40;99.90
10597;DHT22;5346;48.766;8.674;2023-05-14T02:15:39;7.50;99.90
10597;DHT22;5346;48.766;8.674;2023-05-14T02:18:13;7.60;99.90
10597;DHT22;5346;48.766;8.674;2023-05-14T02:20:40;7.70;99.90
10597;DHT22;5346;48.766;8.674;2023-05-14T02:23:13;7.70;99.90
10597;DHT22;5346;48.766;8.674;2023-05-14T02:25:40;7.70;99.90
10597;DHT22;5346;48.766;8.674;2023-05-14T02:28:14;7.70;99.90
10597;DHT22;5346;48.766;8.674;2023-05-14T02:30:41;7.70;99.90
10597;DHT22;5346;48.766;8.674;2023-05-14T02:33:15;7.70;99.90
10597;DHT22;5346;48.766;8.674;2023-05-14T02:35:43;7.70;99.90
10597;DHT22;5346;48.766;8.674;2023-05-14T02:38:17;7.70;1.00
10597;DHT22;5346;48.766;8.674;2023-05-14T02:40:50;7.70;1.00
10597;DHT22;5346;48.766;8.674;2023-05-14T02:43:24;7.70;1.00
10597;DHT22;5346;48.766;8.674;2023-05-14T02:45:58;7.70;1.00
10597;DHT22;5346;48.766;8.674;2023-05-14T02:48:33;7.70;1.00
10597;DHT22;5346;48.766;8.674;2023-05-14T02:51:06;7.70;1.00
10597;DHT22;5346;48.766;8.674;2023-05-14T02:53:34;7.70;1.00
10597;DHT22;5346;48.766;8.674;2023-05-14T02:56:07;7.70;1.00
10597;DHT22;5346;48.766;8.674;2023-05-14T02:58:35;7.70;1.00
10597;DHT22;5346;48.766;8.674;2023-05-14T03:01:09;7.70;1.00
10597;DHT22;5346;48.766;8.674;2023-05-14T03:03:50;7.70;1.00
10597;DHT22;5346;48.766;8.674;2023-05-14T03:06:23;7.80;1.00
10597;DHT22;5346;48.766;8.674;2023-05-14T03:08:51;7.80;1.00
10597;DHT22;5346;48.766;8.674;2023-05-14T03:11:24;7.80;1.00
10597;DHT22;5346;48.766;8.674;2023-05-14T03:13:52;7.90;1.00
10597;DHT22;5346;48.766;8.674;2023-05-14T03:16:19;7.90;1.00
10597;DHT22;5346;48.766;8.674;2023-05-14T03:18:53;8.00;1.00
10597;DHT22;5346;48.766;8.674;2023-05-14T03:21:20;8.00;1.00
10597;DHT22;5346;48.766;8.674;2023-05-14T03:23:53;8.10;1.00
10597;DHT22;5346;48.766;8.674;2023-05-14T03:26:23;8.00;1.00
10597;DHT22;5346;48.766;8.674;2023-05-14T03:28:56;8.00;99.90
10597;DHT22;5346;48.766;8.674;2023-05-14T03:31:23;8.00;99.90
10597;DHT22;5346;48.766;8.674;2023-05-14T03:33:57;8.00;99.90
10597;DHT22;5346;48.766;8.674;2023-05-14T03:36:31;8.00;99.90
10597;DHT22;5346;48.766;8.674;2023-05-14T03:39:05;8.00;99.90
10597;DHT22;5346;48.766;8.674;2023-05-14T03:41:40;8.10;99.90
10597;DHT22;5346;48.766;8.674;2023-05-14T03:44:07;8.00;99.90
10597;DHT22;5346;48.766;8.674;2023-05-14T03:46:34;8.00;99.90
10597;DHT22;5346;48.766;8.674;2023-05-14T03:49:07;8.00;99.90
10597;DHT22;5346;48.766;8.674;2023-05-14T03:51:35;7.90;99.90
10597;DHT22;5346;48.766;8.674;2023-05-14T03:54:08;7.90;99.90
10597;DHT22;5346;48.766;8.674;2023-05-14T03:56:36;7.90;99.90
10597;DHT22;5346;48.766;8.674;2023-05-14T03:59:09;7.90;99.90
10597;DHT22;5346;48.766;8.674;2023-05-14T04:01:37;7.90;84.90
10597;DHT22;5346;48.766;8.674;2023-05-14T04:04:11;7.80;86.10
10597;DHT22;5346;48.766;8.674;2023-05-14T04:06:58;7.80;99.90
10597;DHT22;5346;48.766;8.674;2023-05-14T04:09:25;7.70;99.90
10597;DHT22;5346;48.766;8.674;2023-05-14T04:11:58;7.70;99.90
10597;DHT22;5346;48.766;8.674;2023-05-14T04:14:33;7.80;99.90
10597;DHT22;5346;48.766;8.674;2023-05-14T04:17:07;7.80;99.90
10597;DHT22;5346;48.766;8.674;2023-05-14T04:19:34;7.80;99.90
10597;DHT22;5346;48.766;8.674;2023-05-14T04:22:01;7.90;99.90
10597;DHT22;5346;48.766;8.674;2023-05-14T04:24:34;7.90;99.90
10597;DHT22;5346;48.766;8.674;2023-05-14T04:27:02;7.90;99.90
10597;DHT22;5346;48.766;8.674;2023-05-14T04:29:36;7.90;99.90
10597;DHT22;5346;48.766;8.674;2023-05-14T04:32:03;7.90;99.90
10597;DHT22;5346;48.766;8.674;2023-05-14T04:34:30;7.90;99.90
10597;DHT22;5346;48.766;8.674;2023-05-14T04:37:04;8.00;99.90
10597;DHT22;5346;48.766;8.674;2023-05-14T04:39:38;8.00;99.90
10597;DHT22;5346;48.766;8.674;2023-05-14T04:42:06;8.00;99.90
10597;DHT22;5346;48.766;8.674;2023-05-14T04:44:34;8.00;99.90
10597;DHT22;5346;48.766;8.674;2023-05-14T04:47:09;8.00;99.90
10597;DHT22;5346;48.766;8.674;2023-05-14T04:49:36;8.00;99.90
10597;DHT22;5346;48.766;8.674;2023-05-14T04:52:10;8.00;99.90
10597;DHT22;5346;48.766;8.674;2023-05-14T04:54:44;8.10;99.90
10597;DHT22;5346;48.766;8.674;2023-05-14T04:57:11;8.10;91.20
10597;DHT22;5346;48.766;8.674;2023-05-14T04:59:45;8.20;68.70
10597;DHT22;5346;48.766;8.674;2023-05-14T05:02:12;8.20;58.50
10597;DHT22;5346;48.766;8.674;2023-05-14T05:04:46;8.30;26.10
10597;DHT22;5346;48.766;8.674;2023-05-14T05:07:27;8.30;1.00
10597;DHT22;5346;48.766;8.674;2023-05-14T05:10:01;8.40;1.00
10597;DHT22;5346;48.766;8.674;2023-05-14T05:12:29;8.50;1.00
10597;DHT22;5346;48.766;8.674;2023-05-14T05:15:03;8.60;1.00
10597;DHT22;5346;48.766;8.674;2023-05-14T05:17:31;8.70;99.90
10597;DHT22;5346;48.766;8.674;2023-05-14T05:19:58;8.80;99.90
10597;DHT22;5346;48.766;8.674;2023-05-14T05:22:32;9.00;99.90
10597;DHT22;5346;48.766;8.674;2023-05-14T05:24:59;9.00;1.00
10597;DHT22;5346;48.766;8.674;2023-05-14T05:27:33;9.10;1.00
10597;DHT22;5346;48.766;8.674;2023-05-14T05:30:01;9.20;1.00
10597;DHT22;5346;48.766;8.674;2023-05-14T05:32:36;9.30;1.00
10597;DHT22;5346;48.766;8.674;2023-05-14T05:35:04;9.40;1.40
10597;DHT22;5346;48.766;8.674;2023-05-14T05:37:39;9.50;99.90
10597;DHT22;5346;48.766;8.674;2023-05-14T05:40:07;9.60;99.90
10597;DHT22;5346;48.766;8.674;2023-05-14T05:42:43;9.70;99.90
10597;DHT22;5346;48.766;8.674;2023-05-14T05:45:17;9.80;99.90
10597;DHT22;5346;48.766;8.674;2023-05-14T05:47:51;9.90;99.90
10597;DHT22;5346;48.766;8.674;2023-05-14T05:50:18;10.00;1.00
10597;DHT22;5346;48.766;8.674;2023-05-14T05:52:52;10.00;1.00
10597;DHT22;5346;48.766;8.674;2023-05-14T05:55:19;10.10;1.00
10597;DHT22;5346;48.766;8.674;2023-05-14T05:57:52;10.20;1.00
10597;DHT22;5346;48.766;8.674;2023-05-14T06:00:23;10.20;1.00
10597;DHT22;5346;48.766;8.674;2023-05-14T06:02:58;10.30;99.90
10597;DHT22;5346;48.766;8.674;2023-05-14T06:05:33;10.30;99.90
10597;DHT22;5346;48.766;8.674;2023-05-14T06:08:09;10.40;99.90
10597;DHT22;5346;48.766;8.674;2023-05-14T06:10:36;10.40;99.90
10597;DHT22;5346;48.766;8.674;2023-05-14T06:13:13;10.50;99.90
10597;DHT22;5346;48.766;8.674;2023-05-14T06:15:47;10.50;57.30
10597;DHT22;5346;48.766;8.674;2023-05-14T06:18:21;10.50;32.70
10597;DHT22;5346;48.766;8.674;2023-05-14T06:20:55;10.60;31.60
10597;DHT22;5346;48.766;8.674;2023-05-14T06:23:32;10.70;1.00
10597;DHT22;5346;48.766;8.674;2023-05-14T06:26:00;10.70;1.00
10597;DHT22;5346;48.766;8.674;2023-05-14T06:28:34;10.70;1.00
10597;DHT22;5346;48.766;8.674;2023-05-14T06:31:02;10.80;1.00
10597;DHT22;5346;48.766;8.674;2023-05-14T06:33:36;10.90;1.00
10597;DHT22;5346;48.766;8.674;2023-05-14T06:36:10;11.00;1.00
10597;DHT22;5346;48.766;8.674;2023-05-14T06:38:37;11.10;1.00
10597;DHT22;5346;48.766;8.674;2023-05-14T06:41:12;11.20;99.90
10597;DHT22;5346;48.766;8.674;2023-05-14T06:43:40;11.20;99.90
10597;DHT22;5346;48.766;8.674;2023-05-14T06:46:15;11.30;50.10
10597;DHT22;5346;48.766;8.674;2023-05-14T06:48:43;11.40;1.00
10597;DHT22;5346;48.766;8.674;2023-05-14T06:51:17;11.40;1.00
10597;DHT22;5346;48.766;8.674;2023-05-14T06:53:45;11.50;1.00
10597;DHT22;5346;48.766;8.674;2023-05-14T06:56:21;11.60;1.00
10597;DHT22;5346;48.766;8.674;2023-05-14T06:58:49;11.60;99.90
10597;DHT22;5346;48.766;8.674;2023-05-14T07:01:24;11.60;99.90
10597;DHT22;5346;48.766;8.674;2023-05-14T07:03:58;11.50;99.90
10597;DHT22;5346;48.766;8.674;2023-05-14T07:06:32;11.60;99.90
10597;DHT22;5346;48.766;8.674;2023-05-14T07:09:13;11.60;99.90
10597;DHT22;5346;48.766;8.674;2023-05-14T07:11:42;11.70;99.90
10597;DHT22;5346;48.766;8.674;2023-05-14T07:14:16;11.80;99.90
10597;DHT22;5346;48.766;8.674;2023-05-14T07:16:50;11.80;99.90
10597;DHT22;5346;48.766;8.674;2023-05-14T07:19:24;11.90;99.90
10597;DHT22;5346;48.766;8.674;2023-05-14T07:22:01;12.10;99.90
10597;DHT22;5346;48.766;8.674;2023-05-14T07:24:35;12.10;99.90
10597;DHT22;5346;48.766;8.674;2023-05-14T07:27:03;12.10;42.20
10597;DHT22;5346;48.766;8.674;2023-05-14T07:29:38;12.10;35.10
10597;DHT22;5346;48.766;8.674;2023-05-14T07:32:05;12.10;1.70
10597;DHT22;5346;48.766;8.674;2023-05-14T07:34:41;12.30;69.70
10597;DHT22;5346;48.766;8.674;2023-05-14T07:37:11;12.40;1.00
10597;DHT22;5346;48.766;8.674;2023-05-14T07:39:46;12.50;1.00
10597;DHT22;5346;48.766;8.674;2023-05-14T07:42:13;12.60;1.00
10597;DHT22;5346;48.766;8.674;2023-05-14T07:45:02;12.60;1.00
10597;DHT22;5346;48.766;8.674;2023-05-14T07:47:38;12.70;1.00
10597;DHT22;5346;48.766;8.674;2023-05-14T07:50:13;12.90;1.00
10597;DHT22;5346;48.766;8.674;2023-05-14T07:52:41;13.00;1.00
10597;DHT22;5346;48.766;8.674;2023-05-14T07:55:09;13.10;1.00
10597;DHT22;5346;48.766;8.674;2023-05-14T07:57:50;13.40;1.00
10597;DHT22;5346;48.766;8.674;2023-05-14T08:00:17;13.70;99.90
10597;DHT22;5346;48.766;8.674;2023-05-14T08:02:59;13.90;99.90
10597;DHT22;5346;48.766;8.674;2023-05-14T08:05:40;14.40;99.90
10597;DHT22;5346;48.766;8.674;2023-05-14T08:08:14;14.70;99.90
10597;DHT22;5346;48.766;8.674;2023-05-14T08:10:42;15.00;99.90
10597;DHT22;5346;48.766;8.674;2023-05-14T08:13:17;15.30;99.90
10597;DHT22;5346;48.766;8.674;2023-05-14T08:15:44;15.70;99.90
10597;DHT22;5346;48.766;8.674;2023-05-14T08:18:19;15.90;72.20
10597;DHT22;5346;48.766;8.674;2023-05-14T08:20:48;16.10;93.00
10597;DHT22;5346;48.766;8.674;2023-05-14T08:23:22;16.10;25.40
10597;DHT22;5346;48.766;8.674;2023-05-14T08:25:50;16.10;1.00
10597;DHT22;5346;48.766;8.674;2023-05-14T08:28:24;15.90;16.40
10597;DHT22;5346;48.766;8.674;2023-05-14T08:30:51;15.80;37.00
10597;DHT22;5346;48.766;8.674;2023-05-14T08:33:25;15.90;99.90
10597;DHT22;5346;48.766;8.674;2023-05-14T08:35:52;16.20;26.10
10597;DHT22;5346;48.766;8.674;2023-05-14T08:38:27;16.40;1.00
10597;DHT22;5346;48.766;8.674;2023-05-14T08:41:01;16.30;1.00
10597;DHT22;5346;48.766;8.674;2023-05-14T08:46:52;16.10;1.00
10597;DHT22;5346;48.766;8.674;2023-05-14T08:52:17;16.20;1.00
10597;DHT22;5346;48.766;8.674;2023-05-14T08:54:56;16.80;8.60
10597;DHT22;5346;48.766;8.674;2023-05-14T08:57:33;17.40;1.00
10597;DHT22;5346;48.766;8.674;2023-05-14T09:00:08;17.90;1.00
10597;DHT22;5346;48.766;8.674;2023-05-14T09:02:40;18.20;1.00
10597;DHT22;5346;48.766;8.674;2023-05-14T09:05:22;18.40;1.00
10597;DHT22;5346;48.766;8.674;2023-05-14T09:07:57;18.10;1.00
10597;DHT22;5346;48.766;8.674;2023-05-14T09:10:33;17.60;1.00
10597;DHT22;5346;48.766;8.674;2023-05-14T09:13:07;17.60;1.00
10597;DHT22;5346;48.766;8.674;2023-05-14T09:15:42;18.20;1.00
10597;DHT22;5346;48.766;8.674;2023-05-14T09:18:16;18.80;1.00
10597;DHT22;5346;48.766;8.674;2023-05-14T09:20:50;18.90;1.00
10597;DHT22;5346;48.766;8.674;2023-05-14T09:23:18;18.70;1.00
10597;DHT22;5346;48.766;8.674;2023-05-14T09:25:52;18.60;1.00
10597;DHT22;5346;48.766;8.674;2023-05-14T09:28:21;17.70;1.00
10597;DHT22;5346;48.766;8.674;2023-05-14T09:30:58;17.00;1.00
10597;DHT22;5346;48.766;8.674;2023-05-14T09:33:32;16.10;1.00
10597;DHT22;5346;48.766;8.674;2023-05-14T09:36:06;15.40;1.00
10597;DHT22;5346;48.766;8.674;2023-05-14T09:38:40;15.00;1.00
10597;DHT22;5346;48.766;8.674;2023-05-14T09:41:15;14.90;1.00
10597;DHT22;5346;48.766;8.674;2023-05-14T09:43:43;15.00;1.00
10597;DHT22;5346;48.766;8.674;2023-05-14T09:46:17;15.00;1.00
10597;DHT22;5346;48.766;8.674;2023-05-14T09:48:45;15.10;1.00
10597;DHT22;5346;48.766;8.674;2023-05-14T09:51:19;15.40;1.00
10597;DHT22;5346;48.766;8.674;2023-05-14T09:53:47;15.50;1.00
10597;DHT22;5346;48.766;8.674;2023-05-14T09:56:21;15.90;1.00
10597;DHT22;5346;48.766;8.674;2023-05-14T09:58:49;16.30;1.00
10597;DHT22;5346;48.766;8.674;2023-05-14T10:01:24;16.80;1.00
10597;DHT22;5346;48.766;8.674;2023-05-14T10:03:59;17.10;1.00
10597;DHT22;5346;48.766;8.674;2023-05-14T10:06:50;17.40;1.00
10597;DHT22;5346;48.766;8.674;2023-05-14T10:09:26;17.60;1.00
10597;DHT22;5346;48.766;8.674;2023-05-14T10:11:58;17.80;1.00
10597;DHT22;5346;48.766;8.674;2023-05-14T10:14:43;18.10;1.00
10597;DHT22;5346;48.766;8.674;2023-05-14T10:17:18;18.00;1.00
10597;DHT22;5346;48.766;8.674;2023-05-14T10:19:56;17.70;1.00
10597;DHT22;5346;48.766;8.674;2023-05-14T10:22:29;17.20;1.00
10597;DHT22;5346;48.766;8.674;2023-05-14T10:25:04;16.60;1.00
10597;DHT22;5346;48.766;8.674;2023-05-14T10:27:40;16.00;1.00
10597;DHT22;5346;48.766;8.674;2023-05-14T10:30:20;15.30;1.00
10597;DHT22;5346;48.766;8.674;2023-05-14T10:33:13;14.90;1.00
10597;DHT22;5346;48.766;8.674;2023-05-14T10:36:04;14.40;1.00
10597;DHT22;5346;48.766;8.674;2023-05-14T10:38:34;13.80;99.90
10597;DHT22;5346;48.766;8.674;2023-05-14T10:41:11;13.20;99.90
10597;DHT22;5346;48.766;8.674;2023-05-14T10:43:43;12.60;1.00
10597;DHT22;5346;48.766;8.674;2023-05-14T10:46:17;12.40;25.50
10597;DHT22;5346;48.766;8.674;2023-05-14T10:48:44;12.40;1.00
10597;DHT22;5346;48.766;8.674;2023-05-14T10:51:17;12.50;1.00
10597;DHT22;5346;48.766;8.674;2023-05-14T10:53:48;12.80;99.90
10597;DHT22;5346;48.766;8.674;2023-05-14T10:56:22;13.40;99.90
10597;DHT22;5346;48.766;8.674;2023-05-14T10:58:49;14.30;1.00
10597;DHT22;5346;48.766;8.674;2023-05-14T11:01:23;15.40;1.00
10597;DHT22;5346;48.766;8.674;2023-05-14T11:03:57;16.80;78.70
10597;DHT22;5346;48.766;8.674;2023-05-14T11:06:46;18.00;1.00
10597;DHT22;5346;48.766;8.674;2023-05-14T11:09:21;18.50;1.00
10597;DHT22;5346;48.766;8.674;2023-05-14T11:11:49;18.00;1.00
10597;DHT22;5346;48.766;8.674;2023-05-14T11:14:23;17.20;1.00
10597;DHT22;5346;48.766;8.674;2023-05-14T11:16:57;16.70;1.00
10597;DHT22;5346;48.766;8.674;2023-05-14T11:19:31;16.00;8.70
10597;DHT22;5346;48.766;8.674;2023-05-14T11:22:06;15.60;1.00
10597;DHT22;5346;48.766;8.674;2023-05-14T11:24:40;15.50;80.70
10597;DHT22;5346;48.766;8.674;2023-05-14T11:27:14;15.50;99.90
10597;DHT22;5346;48.766;8.674;2023-05-14T11:29:45;15.60;23.00
10597;DHT22;5346;48.766;8.674;2023-05-14T11:32:20;16.00;17.40
10597;DHT22;5346;48.766;8.674;2023-05-14T11:34:54;16.60;1.00
10597;DHT22;5346;48.766;8.674;2023-05-14T11:37:28;18.30;1.00
10597;DHT22;5346;48.766;8.674;2023-05-14T11:40:07;19.60;1.00
10597;DHT22;5346;48.766;8.674;2023-05-14T11:42:46;20.70;1.00
10597;DHT22;5346;48.766;8.674;2023-05-14T11:45:26;20.80;1.00
10597;DHT22;5346;48.766;8.674;2023-05-14T11:48:11;20.10;1.00
10597;DHT22;5346;48.766;8.674;2023-05-14T11:50:44;18.50;1.00
10597;DHT22;5346;48.766;8.674;2023-05-14T11:53:28;17.50;1.00
10597;DHT22;5346;48.766;8.674;2023-05-14T11:55:56;16.50;1.00
10597;DHT22;5346;48.766;8.674;2023-05-14T11:58:34;15.70;1.00
10597;DHT22;5346;48.766;8.674;2023-05-14T12:01:12;15.20;1.00
10597;DHT22;5346;48.766;8.674;2023-05-14T12:03:47;14.90;1.00
10597;DHT22;5346;48.766;8.674;2023-05-14T12:06:21;14.70;1.00
10597;DHT22;5346;48.766;8.674;2023-05-14T12:09:04;14.70;16.20
10597;DHT22;5346;48.766;8.674;2023-05-14T12:11:37;14.70;7.20
10597;DHT22;5346;48.766;8.674;2023-05-14T12:14:22;14.80;1.00
10597;DHT22;5346;48.766;8.674;2023-05-14T12:16:56;14.90;6.50
10597;DHT22;5346;48.766;8.674;2023-05-14T12:19:29;15.00;1.00
10597;DHT22;5346;48.766;8.674;2023-05-14T12:22:04;15.20;1.00
10597;DHT22;5346;48.766;8.674;2023-05-14T12:24:38;15.30;1.00
10597;DHT22;5346;48.766;8.674;2023-05-14T12:27:06;15.50;1.00
10597;DHT22;5346;48.766;8.674;2023-05-14T12:29:42;15.70;1.00
10597;DHT22;5346;48.766;8.674;2023-05-14T12:32:16;15.70;1.00
10597;DHT22;5346;48.766;8.674;2023-05-14T12:34:44;15.70;1.00
10597;DHT22;5346;48.766;8.674;2023-05-14T12:37:18;15.90;1.00
10597;DHT22;5346;48.766;8.674;2023-05-14T12:39:46;16.40;1.00
10597;DHT22;5346;48.766;8.674;2023-05-14T12:42:14;16.90;1.00
10597;DHT22;5346;48.766;8.674;2023-05-14T12:44:49;17.20;1.00
10597;DHT22;5346;48.766;8.674;2023-05-14T12:47:16;17.40;1.00
10597;DHT22;5346;48.766;8.674;2023-05-14T12:49:50;17.20;1.00
10597;DHT22;5346;48.766;8.674;2023-05-14T12:52:24;17.00;1.00
10597;DHT22;5346;48.766;8.674;2023-05-14T12:55:04;16.80;1.00
10597;DHT22;5346;48.766;8.674;2023-05-14T12:57:42;16.50;1.00
10597;DHT22;5346;48.766;8.674;2023-05-14T13:00:09;16.40;1.00
10597;DHT22;5346;48.766;8.674;2023-05-14T13:02:44;16.60;1.00
10597;DHT22;5346;48.766;8.674;2023-05-14T13:05:24;16.60;1.00
10597;DHT22;5346;48.766;8.674;2023-05-14T13:08:05;17.20;1.00
10597;DHT22;5346;48.766;8.674;2023-05-14T13:10:39;18.10;1.00
10597;DHT22;5346;48.766;8.674;2023-05-14T13:13:07;18.50;1.00
10597;DHT22;5346;48.766;8.674;2023-05-14T13:15:41;18.30;1.00
10597;DHT22;5346;48.766;8.674;2023-05-14T13:18:09;18.50;1.00
10597;DHT22;5346;48.766;8.674;2023-05-14T13:20:46;18.90;1.00
10597;DHT22;5346;48.766;8.674;2023-05-14T13:23:22;19.70;1.00
10597;DHT22;5346;48.766;8.674;2023-05-14T13:25:50;19.70;1.00
10597;DHT22;5346;48.766;8.674;2023-05-14T13:28:24;18.80;1.00
10597;DHT22;5346;48.766;8.674;2023-05-14T13:33:42;16.20;1.00
10597;DHT22;5346;48.766;8.674;2023-05-14T13:36:17;14.90;76.20
10597;DHT22;5346;48.766;8.674;2023-05-14T13:38:45;14.10;99.90
10597;DHT22;5346;48.766;8.674;2023-05-14T13:41:19;13.40;1.00
10597;DHT22;5346;48.766;8.674;2023-05-14T13:43:47;12.90;1.00
10597;DHT22;5346;48.766;8.674;2023-05-14T13:46:21;12.60;99.90
10597;DHT22;5346;48.766;8.674;2023-05-14T13:48:48;12.30;99.90
10597;DHT22;5346;48.766;8.674;2023-05-14T13:51:15;12.30;1.00
10597;DHT22;5346;48.766;8.674;2023-05-14T13:53:50;12.20;1.00
10597;DHT22;5346;48.766;8.674;2023-05-14T13:56:18;12.20;1.00
10597;DHT22;5346;48.766;8.674;2023-05-14T13:58:52;12.30;1.00
10597;DHT22;5346;48.766;8.674;2023-05-14T14:01:19;12.20;1.00
10597;DHT22;5346;48.766;8.674;2023-05-14T14:03:59;12.40;1.00
10597;DHT22;5346;48.766;8.674;2023-05-14T14:06:40;12.60;1.00
10597;DHT22;5346;48.766;8.674;2023-05-14T14:09:14;12.70;1.00
10597;DHT22;5346;48.766;8.674;2023-05-14T14:11:48;13.00;1.00
10597;DHT22;5346;48.766;8.674;2023-05-14T14:14:29;13.20;1.00
10597;DHT22;5346;48.766;8.674;2023-05-14T14:17:03;13.30;99.90
10597;DHT22;5346;48.766;8.674;2023-05-14T14:19:37;13.50;99.90
10597;DHT22;5346;48.766;8.674;2023-05-14T14:22:04;13.70;68.40
10597;DHT22;5346;48.766;8.674;2023-05-14T14:24:38;13.60;6.60
10597;DHT22;5346;48.766;8.674;2023-05-14T14:27:05;13.60;1.00
10597;DHT22;5346;48.766;8.674;2023-05-14T14:29:39;13.60;94.20
10597;DHT22;5346;48.766;8.674;2023-05-14T14:32:13;13.60;66.60
10597;DHT22;5346;48.766;8.674;2023-05-14T14:34:46;13.70;1.00
10597;DHT22;5346;48.766;8.674;2023-05-14T14:37:20;13.90;1.00
10597;DHT22;5346;48.766;8.674;2023-05-14T14:39:48;14.30;1.00
10597;DHT22;5346;48.766;8.674;2023-05-14T14:42:22;14.60;1.00
10597;DHT22;5346;48.766;8.674;2023-05-14T14:44:49;14.80;1.00
10597;DHT22;5346;48.766;8.674;2023-05-14T14:47:23;15.10;99.90
10597;DHT22;5346;48.766;8.674;2023-05-14T14:49:50;15.20;99.90
10597;DHT22;5346;48.766;8.674;2023-05-14T14:52:24;15.60;99.90
10597;DHT22;5346;48.766;8.674;2023-05-14T14:54:53;15.70;99.90
10597;DHT22;5346;48.766;8.674;2023-05-14T14:57:28;15.60;99.90
10597;DHT22;5346;48.766;8.674;2023-05-14T14:59:55;15.30;99.90
10597;DHT22;5346;48.766;8.674;2023-05-14T15:02:29;14.80;99.90
10597;DHT22;5346;48.766;8.674;2023-05-14T15:05:02;14.40;99.90
10597;DHT22;5346;48.766;8.674;2023-05-14T15:07:37;14.20;99.90
10597;DHT22;5346;48.766;8.674;2023-05-14T15:10:18;14.00;99.90
10597;DHT22;5346;48.766;8.674;2023-05-14T15:12:52;13.90;1.00
10597;DHT22;5346;48.766;8.674;2023-05-14T15:15:20;14.00;1.00
10597;DHT22;5346;48.766;8.674;2023-05-14T15:17:54;14.00;1.00
10597;DHT22;5346;48.766;8.674;2023-05-14T15:20:21;14.10;1.00
10597;DHT22;5346;48.766;8.674;2023-05-14T15:22:55;14.10;1.00
10597;DHT22;5346;48.766;8.674;2023-05-14T15:25:23;14.00;99.90
10597;DHT22;5346;48.766;8.674;2023-05-14T15:27:59;14.10;1.00
10597;DHT22;5346;48.766;8.674;2023-05-14T15:30:26;15.10;1.00
10597;DHT22;5346;48.766;8.674;2023-05-14T15:32:54;16.50;99.90
10597;DHT22;5346;48.766;8.674;2023-05-14T15:35:28;18.30;1.00
10597;DHT22;5346;48.766;8.674;2023-05-14T15:37:55;19.50;1.00
10597;DHT22;5346;48.766;8.674;2023-05-14T15:40:29;20.00;1.00
10597;DHT22;5346;48.766;8.674;2023-05-14T15:42:56;20.20;1.00
10597;DHT22;5346;48.766;8.674;2023-05-14T15:45:23;20.10;1.00
10597;DHT22;5346;48.766;8.674;2023-05-14T15:47:57;20.60;1.00
10597;DHT22;5346;48.766;8.674;2023-05-14T15:50:24;21.10;1.00
10597;DHT22;5346;48.766;8.674;2023-05-14T15:52:59;21.90;1.00
10597;DHT22;5346;48.766;8.674;2023-05-14T15:55:26;22.60;1.00
10597;DHT22;5346;48.766;8.674;2023-05-14T15:58:00;22.60;1.00
10597;DHT22;5346;48.766;8.674;2023-05-14T16:00:34;21.90;1.00
10597;DHT22;5346;48.766;8.674;2023-05-14T16:03:08;21.10;1.00
10597;DHT22;5346;48.766;8.674;2023-05-14T16:05:48;20.30;1.00
10597;DHT22;5346;48.766;8.674;2023-05-14T16:08:22;19.50;1.00
10597;DHT22;5346;48.766;8.674;2023-05-14T16:10:49;18.40;1.00
10597;DHT22;5346;48.766;8.674;2023-05-14T16:13:23;17.60;1.00
10597;DHT22;5346;48.766;8.674;2023-05-14T16:15:50;16.90;1.00
10597;DHT22;5346;48.766;8.674;2023-05-14T16:18:24;16.40;1.00
10597;DHT22;5346;48.766;8.674;2023-05-14T16:20:58;16.00;1.00
10597;DHT22;5346;48.766;8.674;2023-05-14T16:23:25;15.80;1.00
10597;DHT22;5346;48.766;8.674;2023-05-14T16:25:59;15.50;1.00
10597;DHT22;5346;48.766;8.674;2023-05-14T16:28:26;15.30;1.00
10597;DHT22;5346;48.766;8.674;2023-05-14T16:30:53;15.30;1.00
10597;DHT22;5346;48.766;8.674;2023-05-14T16:33:29;15.50;1.00
10597;DHT22;5346;48.766;8.674;2023-05-14T16:36:03;16.50;1.00
10597;DHT22;5346;48.766;8.674;2023-05-14T16:38:30;18.10;1.00
10597;DHT22;5346;48.766;8.674;2023-05-14T16:41:18;19.30;1.00
10597;DHT22;5346;48.766;8.674;2023-05-14T16:43:52;20.10;1.00
10597;DHT22;5346;48.766;8.674;2023-05-14T16:46:19;20.10;1.00
10597;DHT22;5346;48.766;8.674;2023-05-14T16:48:53;19.80;1.00
10597;DHT22;5346;48.766;8.674;2023-05-14T16:51:27;18.70;1.00